ESMK/KID METAR and TAF weather

Enter ICAO airport designator
Station Type Date Time Source
ESMK METAR 2021/07/30 06:50 UTC NOAA

ESMK 300650Z 25012KT 210V280 9999 BKN018 BKN051 16/15 Q1000


Station Type Date Time Source
ESMK Decoded METAR 2021/07/30 06:50 UTC NOAA

Kristianstad / Everod, Sweden (ESMK) 55-55N 014-05E
Jul 30, 2021 - 02:50 AM EDT / 2021.07.30 0650 UTC
Wind: from the WSW (250 degrees) at 14 MPH (12 KT) (direction variable):0
Visibility: greater than 7 mile(s):0
Sky conditions: mostly cloudy
Temperature: 60 F (16 C)
Dew Point: 59 F (15 C)
Relative Humidity: 93%
Pressure (altimeter): 29.53 in. Hg (1000 hPa)
ob: ESMK 300650Z 25012KT 210V280 9999 BKN018 BKN051 16/15 Q1000
cycle: 7

Station Type Date Time Source
ESMK TAF 2020/07/19 09:57 UTC NOAA

TAF TAF ESMK 190930Z 1909/1921 13008KT CAVOK PROB40 1910/1919 SCT030TCU

Example: see airport list